sensor_id;sensor_type;location;lat;lon;timestamp;P1;durP1;ratioP1;P2;durP2;ratioP2
22603;SDS011;11469;49.024;8.246;2023-10-08T00:00:25;18.00;;;5.47;;
22603;SDS011;11469;49.024;8.246;2023-10-08T00:03:08;11.90;;;5.55;;
22603;SDS011;11469;49.024;8.246;2023-10-08T00:05:35;12.75;;;5.65;;
22603;SDS011;11469;49.024;8.246;2023-10-08T00:08:01;13.25;;;5.40;;
22603;SDS011;11469;49.024;8.246;2023-10-08T00:10:27;11.95;;;5.38;;
22603;SDS011;11469;49.024;8.246;2023-10-08T00:12:52;13.27;;;5.45;;
22603;SDS011;11469;49.024;8.246;2023-10-08T00:15:18;13.13;;;5.38;;
22603;SDS011;11469;49.024;8.246;2023-10-08T00:17:43;14.43;;;5.72;;
22603;SDS011;11469;49.024;8.246;2023-10-08T00:20:10;12.52;;;5.68;;
22603;SDS011;11469;49.024;8.246;2023-10-08T00:22:41;22.02;;;6.10;;
22603;SDS011;11469;49.024;8.246;2023-10-08T00:25:06;11.93;;;5.55;;
22603;SDS011;11469;49.024;8.246;2023-10-08T00:27:36;9.23;;;4.93;;
22603;SDS011;11469;49.024;8.246;2023-10-08T00:30:04;14.57;;;5.57;;
22603;SDS011;11469;49.024;8.246;2023-10-08T00:32:38;12.85;;;6.03;;
22603;SDS011;11469;49.024;8.246;2023-10-08T00:35:04;13.48;;;5.55;;
22603;SDS011;11469;49.024;8.246;2023-10-08T00:37:30;16.58;;;5.75;;
22603;SDS011;11469;49.024;8.246;2023-10-08T00:39:56;15.02;;;5.90;;
22603;SDS011;11469;49.024;8.246;2023-10-08T00:42:22;12.88;;;5.47;;
22603;SDS011;11469;49.024;8.246;2023-10-08T00:44:47;11.20;;;5.50;;
22603;SDS011;11469;49.024;8.246;2023-10-08T00:47:13;15.63;;;5.85;;
22603;SDS011;11469;49.024;8.246;2023-10-08T00:49:39;17.00;;;6.35;;
22603;SDS011;11469;49.024;8.246;2023-10-08T00:52:13;17.25;;;5.85;;
22603;SDS011;11469;49.024;8.246;2023-10-08T00:54:40;12.82;;;5.40;;
22603;SDS011;11469;49.024;8.246;2023-10-08T00:57:17;12.50;;;5.63;;
22603;SDS011;11469;49.024;8.246;2023-10-08T00:59:47;14.40;;;6.53;;
22603;SDS011;11469;49.024;8.246;2023-10-08T01:02:15;19.20;;;6.07;;
22603;SDS011;11469;49.024;8.246;2023-10-08T01:04:45;14.70;;;5.82;;
22603;SDS011;11469;49.024;8.246;2023-10-08T01:07:12;11.55;;;6.22;;
22603;SDS011;11469;49.024;8.246;2023-10-08T01:09:43;13.07;;;6.45;;
22603;SDS011;11469;49.024;8.246;2023-10-08T01:12:16;15.18;;;6.13;;
22603;SDS011;11469;49.024;8.246;2023-10-08T01:14:53;14.20;;;5.70;;
22603;SDS011;11469;49.024;8.246;2023-10-08T01:17:19;15.05;;;6.18;;
22603;SDS011;11469;49.024;8.246;2023-10-08T01:19:49;16.27;;;6.35;;
22603;SDS011;11469;49.024;8.246;2023-10-08T01:22:20;17.55;;;5.90;;
22603;SDS011;11469;49.024;8.246;2023-10-08T01:24:47;13.23;;;5.90;;
22603;SDS011;11469;49.024;8.246;2023-10-08T01:27:14;13.20;;;6.63;;
22603;SDS011;11469;49.024;8.246;2023-10-08T01:29:50;18.58;;;6.72;;
22603;SDS011;11469;49.024;8.246;2023-10-08T01:32:17;17.98;;;6.22;;
22603;SDS011;11469;49.024;8.246;2023-10-08T01:34:44;14.25;;;6.07;;
22603;SDS011;11469;49.024;8.246;2023-10-08T01:37:13;10.52;;;5.93;;
22603;SDS011;11469;49.024;8.246;2023-10-08T01:39:39;13.10;;;5.82;;
22603;SDS011;11469;49.024;8.246;2023-10-08T01:42:07;13.90;;;7.00;;
22603;SDS011;11469;49.024;8.246;2023-10-08T01:44:41;12.55;;;5.88;;
22603;SDS011;11469;49.024;8.246;2023-10-08T01:47:10;12.63;;;5.97;;
22603;SDS011;11469;49.024;8.246;2023-10-08T01:49:36;12.27;;;5.85;;
22603;SDS011;11469;49.024;8.246;2023-10-08T01:52:04;17.45;;;6.38;;
22603;SDS011;11469;49.024;8.246;2023-10-08T01:54:38;15.57;;;5.95;;
22603;SDS011;11469;49.024;8.246;2023-10-08T01:57:03;17.48;;;5.72;;
22603;SDS011;11469;49.024;8.246;2023-10-08T01:59:31;17.73;;;5.78;;
22603;SDS011;11469;49.024;8.246;2023-10-08T02:01:57;14.10;;;5.43;;
22603;SDS011;11469;49.024;8.246;2023-10-08T02:04:23;13.63;;;5.97;;
22603;SDS011;11469;49.024;8.246;2023-10-08T02:06:48;12.32;;;6.03;;
22603;SDS011;11469;49.024;8.246;2023-10-08T02:09:14;16.70;;;7.07;;
22603;SDS011;11469;49.024;8.246;2023-10-08T02:11:44;16.27;;;6.03;;
22603;SDS011;11469;49.024;8.246;2023-10-08T02:14:18;15.05;;;6.32;;
22603;SDS011;11469;49.024;8.246;2023-10-08T02:16:47;12.05;;;5.30;;
22603;SDS011;11469;49.024;8.246;2023-10-08T02:19:14;13.63;;;5.60;;
22603;SDS011;11469;49.024;8.246;2023-10-08T02:21:43;14.18;;;6.10;;
22603;SDS011;11469;49.024;8.246;2023-10-08T02:24:11;15.18;;;6.10;;
22603;SDS011;11469;49.024;8.246;2023-10-08T02:26:41;14.00;;;5.85;;
22603;SDS011;11469;49.024;8.246;2023-10-08T02:29:08;16.92;;;5.70;;
22603;SDS011;11469;49.024;8.246;2023-10-08T02:31:40;13.02;;;5.57;;
22603;SDS011;11469;49.024;8.246;2023-10-08T02:34:06;14.48;;;6.35;;
22603;SDS011;11469;49.024;8.246;2023-10-08T02:36:35;13.25;;;6.15;;
22603;SDS011;11469;49.024;8.246;2023-10-08T02:39:02;15.10;;;6.18;;
22603;SDS011;11469;49.024;8.246;2023-10-08T02:41:32;14.77;;;6.20;;
22603;SDS011;11469;49.024;8.246;2023-10-08T02:43:57;14.63;;;6.53;;
22603;SDS011;11469;49.024;8.246;2023-10-08T02:46:24;12.30;;;5.65;;
22603;SDS011;11469;49.024;8.246;2023-10-08T02:48:51;12.20;;;5.70;;
22603;SDS011;11469;49.024;8.246;2023-10-08T02:51:17;13.23;;;6.13;;
22603;SDS011;11469;49.024;8.246;2023-10-08T02:53:45;16.60;;;6.78;;
22603;SDS011;11469;49.024;8.246;2023-10-08T02:56:11;12.75;;;6.15;;
22603;SDS011;11469;49.024;8.246;2023-10-08T02:58:39;16.73;;;5.88;;
22603;SDS011;11469;49.024;8.246;2023-10-08T03:01:05;14.40;;;6.53;;
22603;SDS011;11469;49.024;8.246;2023-10-08T03:03:32;16.17;;;6.65;;
22603;SDS011;11469;49.024;8.246;2023-10-08T03:05:58;13.20;;;6.13;;
22603;SDS011;11469;49.024;8.246;2023-10-08T03:08:23;11.57;;;5.80;;
22603;SDS011;11469;49.024;8.246;2023-10-08T03:10:49;11.40;;;5.38;;
22603;SDS011;11469;49.024;8.246;2023-10-08T03:13:21;13.00;;;6.05;;
22603;SDS011;11469;49.024;8.246;2023-10-08T03:15:47;13.35;;;6.35;;
22603;SDS011;11469;49.024;8.246;2023-10-08T03:18:28;13.60;;;6.30;;
22603;SDS011;11469;49.024;8.246;2023-10-08T03:21:01;10.82;;;5.55;;
22603;SDS011;11469;49.024;8.246;2023-10-08T03:23:30;11.05;;;5.80;;
22603;SDS011;11469;49.024;8.246;2023-10-08T03:26:00;11.73;;;5.43;;
22603;SDS011;11469;49.024;8.246;2023-10-08T03:28:34;17.88;;;6.55;;
22603;SDS011;11469;49.024;8.246;2023-10-08T03:31:01;20.60;;;7.07;;
22603;SDS011;11469;49.024;8.246;2023-10-08T03:33:30;21.35;;;6.78;;
22603;SDS011;11469;49.024;8.246;2023-10-08T03:36:06;13.68;;;5.82;;
22603;SDS011;11469;49.024;8.246;2023-10-08T03:38:36;18.60;;;6.07;;
22603;SDS011;11469;49.024;8.246;2023-10-08T03:41:22;12.93;;;6.22;;
22603;SDS011;11469;49.024;8.246;2023-10-08T03:43:55;17.00;;;6.35;;
22603;SDS011;11469;49.024;8.246;2023-10-08T03:46:30;15.95;;;5.35;;
22603;SDS011;11469;49.024;8.246;2023-10-08T03:48:57;13.65;;;6.30;;
22603;SDS011;11469;49.024;8.246;2023-10-08T03:51:29;13.25;;;5.63;;
22603;SDS011;11469;49.024;8.246;2023-10-08T03:54:00;13.63;;;5.60;;
22603;SDS011;11469;49.024;8.246;2023-10-08T03:56:34;13.77;;;6.15;;
22603;SDS011;11469;49.024;8.246;2023-10-08T03:59:02;16.13;;;6.38;;
22603;SDS011;11469;49.024;8.246;2023-10-08T04:01:45;16.48;;;5.18;;
22603;SDS011;11469;49.024;8.246;2023-10-08T04:04:14;12.52;;;5.72;;
22603;SDS011;11469;49.024;8.246;2023-10-08T04:06:40;12.82;;;5.65;;
22603;SDS011;11469;49.024;8.246;2023-10-08T04:09:16;14.90;;;5.90;;
22603;SDS011;11469;49.024;8.246;2023-10-08T04:11:45;15.80;;;5.85;;
22603;SDS011;11469;49.024;8.246;2023-10-08T04:14:14;18.25;;;5.72;;
22603;SDS011;11469;49.024;8.246;2023-10-08T04:16:41;17.58;;;5.40;;
22603;SDS011;11469;49.024;8.246;2023-10-08T04:19:07;18.45;;;6.10;;
22603;SDS011;11469;49.024;8.246;2023-10-08T04:21:33;16.75;;;5.75;;
22603;SDS011;11469;49.024;8.246;2023-10-08T04:24:01;13.90;;;5.68;;
22603;SDS011;11469;49.024;8.246;2023-10-08T04:26:30;14.55;;;5.57;;
22603;SDS011;11469;49.024;8.246;2023-10-08T04:28:57;14.80;;;5.38;;
22603;SDS011;11469;49.024;8.246;2023-10-08T04:31:23;14.27;;;5.88;;
22603;SDS011;11469;49.024;8.246;2023-10-08T04:34:01;18.45;;;5.88;;
22603;SDS011;11469;49.024;8.246;2023-10-08T04:36:33;12.10;;;5.68;;
22603;SDS011;11469;49.024;8.246;2023-10-08T04:38:58;14.98;;;6.25;;
22603;SDS011;11469;49.024;8.246;2023-10-08T04:41:30;11.50;;;5.40;;
22603;SDS011;11469;49.024;8.246;2023-10-08T04:43:55;16.40;;;5.97;;
22603;SDS011;11469;49.024;8.246;2023-10-08T04:46:21;18.90;;;6.07;;
22603;SDS011;11469;49.024;8.246;2023-10-08T04:49:12;13.63;;;6.13;;
22603;SDS011;11469;49.024;8.246;2023-10-08T04:52:03;11.80;;;5.43;;
22603;SDS011;11469;49.024;8.246;2023-10-08T04:54:40;15.38;;;5.97;;
22603;SDS011;11469;49.024;8.246;2023-10-08T04:57:07;11.88;;;5.68;;
22603;SDS011;11469;49.024;8.246;2023-10-08T04:59:40;11.40;;;5.28;;
22603;SDS011;11469;49.024;8.246;2023-10-08T05:02:09;12.57;;;5.40;;
22603;SDS011;11469;49.024;8.246;2023-10-08T05:04:38;14.80;;;5.75;;
22603;SDS011;11469;49.024;8.246;2023-10-08T05:07:17;12.63;;;5.55;;
22603;SDS011;11469;49.024;8.246;2023-10-08T05:09:51;18.55;;;7.03;;
22603;SDS011;11469;49.024;8.246;2023-10-08T05:12:28;14.00;;;5.25;;
22603;SDS011;11469;49.024;8.246;2023-10-08T05:15:06;21.20;;;6.05;;
22603;SDS011;11469;49.024;8.246;2023-10-08T05:20:23;13.48;;;5.72;;
22603;SDS011;11469;49.024;8.246;2023-10-08T05:23:09;13.63;;;5.90;;
22603;SDS011;11469;49.024;8.246;2023-10-08T05:25:54;15.70;;;5.10;;
22603;SDS011;11469;49.024;8.246;2023-10-08T05:28:30;14.60;;;6.00;;
22603;SDS011;11469;49.024;8.246;2023-10-08T05:31:06;13.23;;;5.65;;
22603;SDS011;11469;49.024;8.246;2023-10-08T05:33:44;13.35;;;6.32;;
22603;SDS011;11469;49.024;8.246;2023-10-08T05:36:27;17.27;;;5.72;;
22603;SDS011;11469;49.024;8.246;2023-10-08T05:39:01;15.23;;;5.80;;
22603;SDS011;11469;49.024;8.246;2023-10-08T05:41:41;16.15;;;5.45;;
22603;SDS011;11469;49.024;8.246;2023-10-08T05:44:16;17.30;;;6.35;;
22603;SDS011;11469;49.024;8.246;2023-10-08T05:46:42;17.50;;;5.80;;
22603;SDS011;11469;49.024;8.246;2023-10-08T05:49:37;17.85;;;6.18;;
22603;SDS011;11469;49.024;8.246;2023-10-08T05:52:18;19.85;;;6.47;;
22603;SDS011;11469;49.024;8.246;2023-10-08T05:55:13;18.77;;;6.63;;
22603;SDS011;11469;49.024;8.246;2023-10-08T05:57:55;12.52;;;6.15;;
22603;SDS011;11469;49.024;8.246;2023-10-08T06:00:47;12.32;;;5.47;;
22603;SDS011;11469;49.024;8.246;2023-10-08T06:03:19;14.57;;;6.22;;
22603;SDS011;11469;49.024;8.246;2023-10-08T06:05:47;14.02;;;6.00;;
22603;SDS011;11469;49.024;8.246;2023-10-08T06:08:29;18.30;;;6.45;;
22603;SDS011;11469;49.024;8.246;2023-10-08T06:11:14;14.63;;;5.88;;
22603;SDS011;11469;49.024;8.246;2023-10-08T06:13:52;13.73;;;5.50;;
22603;SDS011;11469;49.024;8.246;2023-10-08T06:16:25;13.85;;;5.82;;
22603;SDS011;11469;49.024;8.246;2023-10-08T06:19:06;14.98;;;5.38;;
22603;SDS011;11469;49.024;8.246;2023-10-08T06:21:33;12.82;;;5.75;;
22603;SDS011;11469;49.024;8.246;2023-10-08T06:23:59;14.45;;;5.97;;
22603;SDS011;11469;49.024;8.246;2023-10-08T06:26:25;12.68;;;6.32;;
22603;SDS011;11469;49.024;8.246;2023-10-08T06:28:52;16.48;;;6.28;;
22603;SDS011;11469;49.024;8.246;2023-10-08T06:31:22;13.75;;;5.65;;
22603;SDS011;11469;49.024;8.246;2023-10-08T06:33:50;15.82;;;6.82;;
22603;SDS011;11469;49.024;8.246;2023-10-08T06:36:15;13.98;;;6.28;;
22603;SDS011;11469;49.024;8.246;2023-10-08T06:38:44;13.65;;;5.60;;
22603;SDS011;11469;49.024;8.246;2023-10-08T06:41:13;13.73;;;5.28;;
22603;SDS011;11469;49.024;8.246;2023-10-08T06:43:42;14.07;;;5.85;;
22603;SDS011;11469;49.024;8.246;2023-10-08T06:46:19;15.15;;;5.75;;
22603;SDS011;11469;49.024;8.246;2023-10-08T06:48:46;18.20;;;5.22;;
22603;SDS011;11469;49.024;8.246;2023-10-08T06:51:14;14.93;;;5.00;;
22603;SDS011;11469;49.024;8.246;2023-10-08T06:53:43;14.75;;;5.82;;
22603;SDS011;11469;49.024;8.246;2023-10-08T06:56:10;13.85;;;5.90;;
22603;SDS011;11469;49.024;8.246;2023-10-08T06:58:37;14.57;;;5.45;;
22603;SDS011;11469;49.024;8.246;2023-10-08T07:01:04;11.85;;;5.43;;
22603;SDS011;11469;49.024;8.246;2023-10-08T07:03:30;17.70;;;5.53;;
22603;SDS011;11469;49.024;8.246;2023-10-08T07:05:56;14.90;;;5.10;;
22603;SDS011;11469;49.024;8.246;2023-10-08T07:08:28;19.00;;;6.38;;
22603;SDS011;11469;49.024;8.246;2023-10-08T07:10:59;20.73;;;5.80;;
22603;SDS011;11469;49.024;8.246;2023-10-08T07:13:26;14.00;;;5.32;;
22603;SDS011;11469;49.024;8.246;2023-10-08T07:15:54;12.10;;;5.07;;
22603;SDS011;11469;49.024;8.246;2023-10-08T07:18:20;15.10;;;5.60;;
22603;SDS011;11469;49.024;8.246;2023-10-08T07:20:56;15.40;;;5.30;;
22603;SDS011;11469;49.024;8.246;2023-10-08T07:23:26;16.33;;;5.10;;
22603;SDS011;11469;49.024;8.246;2023-10-08T07:25:58;19.42;;;6.00;;
22603;SDS011;11469;49.024;8.246;2023-10-08T07:28:38;22.52;;;6.07;;
22603;SDS011;11469;49.024;8.246;2023-10-08T07:31:16;13.65;;;4.75;;
22603;SDS011;11469;49.024;8.246;2023-10-08T07:33:49;16.42;;;4.93;;
22603;SDS011;11469;49.024;8.246;2023-10-08T07:36:31;18.38;;;5.40;;
22603;SDS011;11469;49.024;8.246;2023-10-08T07:38:56;16.83;;;5.53;;
22603;SDS011;11469;49.024;8.246;2023-10-08T07:41:22;19.25;;;5.60;;
22603;SDS011;11469;49.024;8.246;2023-10-08T07:43:48;26.27;;;5.68;;
22603;SDS011;11469;49.024;8.246;2023-10-08T07:46:20;20.27;;;5.28;;
22603;SDS011;11469;49.024;8.246;2023-10-08T07:48:46;14.02;;;4.72;;
22603;SDS011;11469;49.024;8.246;2023-10-08T07:51:13;11.18;;;4.90;;
22603;SDS011;11469;49.024;8.246;2023-10-08T07:53:39;13.73;;;4.63;;
22603;SDS011;11469;49.024;8.246;2023-10-08T07:56:07;17.77;;;5.22;;
22603;SDS011;11469;49.024;8.246;2023-10-08T07:58:34;14.82;;;4.97;;
22603;SDS011;11469;49.024;8.246;2023-10-08T08:01:06;15.75;;;5.47;;
22603;SDS011;11469;49.024;8.246;2023-10-08T08:03:34;22.63;;;5.65;;
22603;SDS011;11469;49.024;8.246;2023-10-08T08:06:02;18.65;;;4.95;;
22603;SDS011;11469;49.024;8.246;2023-10-08T08:08:31;15.70;;;5.65;;
22603;SDS011;11469;49.024;8.246;2023-10-08T08:11:04;25.42;;;5.28;;
22603;SDS011;11469;49.024;8.246;2023-10-08T08:13:37;15.40;;;4.63;;
22603;SDS011;11469;49.024;8.246;2023-10-08T08:16:03;15.02;;;5.53;;
22603;SDS011;11469;49.024;8.246;2023-10-08T08:18:45;22.50;;;5.13;;
22603;SDS011;11469;49.024;8.246;2023-10-08T08:21:11;19.50;;;5.28;;
22603;SDS011;11469;49.024;8.246;2023-10-08T08:23:44;16.45;;;5.10;;
22603;SDS011;11469;49.024;8.246;2023-10-08T08:26:14;22.05;;;5.57;;
22603;SDS011;11469;49.024;8.246;2023-10-08T08:28:57;27.48;;;5.72;;
22603;SDS011;11469;49.024;8.246;2023-10-08T08:31:25;16.27;;;5.45;;
22603;SDS011;11469;49.024;8.246;2023-10-08T08:33:51;24.05;;;5.05;;
22603;SDS011;11469;49.024;8.246;2023-10-08T08:36:26;17.50;;;4.88;;
22603;SDS011;11469;49.024;8.246;2023-10-08T08:38:52;20.70;;;5.60;;
22603;SDS011;11469;49.024;8.246;2023-10-08T08:41:18;26.60;;;5.57;;
22603;SDS011;11469;49.024;8.246;2023-10-08T08:43:52;18.10;;;5.38;;
22603;SDS011;11469;49.024;8.246;2023-10-08T08:46:27;25.35;;;6.10;;
22603;SDS011;11469;49.024;8.246;2023-10-08T08:48:55;16.75;;;4.97;;
22603;SDS011;11469;49.024;8.246;2023-10-08T08:51:22;22.70;;;5.10;;
22603;SDS011;11469;49.024;8.246;2023-10-08T08:53:48;20.77;;;5.18;;
22603;SDS011;11469;49.024;8.246;2023-10-08T08:56:14;20.45;;;5.43;;
22603;SDS011;11469;49.024;8.246;2023-10-08T08:58:41;24.15;;;6.60;;
22603;SDS011;11469;49.024;8.246;2023-10-08T09:01:09;26.42;;;5.15;;
22603;SDS011;11469;49.024;8.246;2023-10-08T09:03:38;12.52;;;4.40;;
22603;SDS011;11469;49.024;8.246;2023-10-08T09:06:04;21.20;;;5.78;;
22603;SDS011;11469;49.024;8.246;2023-10-08T09:08:34;16.85;;;4.90;;
22603;SDS011;11469;49.024;8.246;2023-10-08T09:11:00;17.92;;;5.30;;
22603;SDS011;11469;49.024;8.246;2023-10-08T09:13:27;19.58;;;5.30;;
22603;SDS011;11469;49.024;8.246;2023-10-08T09:15:56;20.55;;;5.90;;
22603;SDS011;11469;49.024;8.246;2023-10-08T09:18:28;19.92;;;5.78;;
22603;SDS011;11469;49.024;8.246;2023-10-08T09:20:59;24.20;;;5.90;;
22603;SDS011;11469;49.024;8.246;2023-10-08T09:23:37;13.23;;;5.00;;
22603;SDS011;11469;49.024;8.246;2023-10-08T09:26:08;22.98;;;5.90;;
22603;SDS011;11469;49.024;8.246;2023-10-08T09:28:38;12.75;;;4.90;;
22603;SDS011;11469;49.024;8.246;2023-10-08T09:31:06;11.55;;;4.30;;
22603;SDS011;11469;49.024;8.246;2023-10-08T09:33:36;16.88;;;5.03;;
22603;SDS011;11469;49.024;8.246;2023-10-08T09:36:02;16.67;;;4.88;;
22603;SDS011;11469;49.024;8.246;2023-10-08T09:38:32;17.10;;;4.63;;
22603;SDS011;11469;49.024;8.246;2023-10-08T09:40:59;17.13;;;4.85;;
22603;SDS011;11469;49.024;8.246;2023-10-08T09:43:27;9.93;;;4.40;;
22603;SDS011;11469;49.024;8.246;2023-10-08T09:45:55;20.10;;;4.60;;
22603;SDS011;11469;49.024;8.246;2023-10-08T09:48:25;16.88;;;4.65;;
22603;SDS011;11469;49.024;8.246;2023-10-08T09:50:52;14.65;;;4.50;;
22603;SDS011;11469;49.024;8.246;2023-10-08T09:53:23;16.13;;;4.70;;
22603;SDS011;11469;49.024;8.246;2023-10-08T09:55:56;14.82;;;4.40;;
22603;SDS011;11469;49.024;8.246;2023-10-08T09:58:23;11.00;;;4.25;;
22603;SDS011;11469;49.024;8.246;2023-10-08T10:00:54;17.00;;;5.03;;
22603;SDS011;11469;49.024;8.246;2023-10-08T10:03:21;11.65;;;4.15;;
22603;SDS011;11469;49.024;8.246;2023-10-08T10:05:48;12.82;;;4.75;;
22603;SDS011;11469;49.024;8.246;2023-10-08T10:08:15;15.43;;;5.18;;
22603;SDS011;11469;49.024;8.246;2023-10-08T10:10:41;10.95;;;4.85;;
22603;SDS011;11469;49.024;8.246;2023-10-08T10:13:12;13.55;;;4.13;;
22603;SDS011;11469;49.024;8.246;2023-10-08T10:15:39;9.13;;;4.30;;
22603;SDS011;11469;49.024;8.246;2023-10-08T10:18:11;10.45;;;5.05;;
22603;SDS011;11469;49.024;8.246;2023-10-08T10:20:44;12.43;;;4.90;;
22603;SDS011;11469;49.024;8.246;2023-10-08T10:26:27;14.73;;;4.00;;
22603;SDS011;11469;49.024;8.246;2023-10-08T10:31:40;14.90;;;4.53;;
22603;SDS011;11469;49.024;8.246;2023-10-08T10:34:10;21.90;;;5.03;;
22603;SDS011;11469;49.024;8.246;2023-10-08T10:36:38;13.95;;;4.55;;
22603;SDS011;11469;49.024;8.246;2023-10-08T10:39:05;17.92;;;4.60;;
22603;SDS011;11469;49.024;8.246;2023-10-08T10:41:41;12.32;;;4.35;;
22603;SDS011;11469;49.024;8.246;2023-10-08T10:44:13;12.50;;;4.45;;
22603;SDS011;11469;49.024;8.246;2023-10-08T10:46:42;12.70;;;4.13;;
22603;SDS011;11469;49.024;8.246;2023-10-08T10:49:15;12.18;;;3.83;;
22603;SDS011;11469;49.024;8.246;2023-10-08T10:51:48;20.58;;;5.05;;
22603;SDS011;11469;49.024;8.246;2023-10-08T10:54:17;13.85;;;4.47;;
22603;SDS011;11469;49.024;8.246;2023-10-08T10:56:46;16.42;;;4.97;;
22603;SDS011;11469;49.024;8.246;2023-10-08T10:59:12;18.63;;;4.82;;
22603;SDS011;11469;49.024;8.246;2023-10-08T11:01:49;13.10;;;4.90;;
22603;SDS011;11469;49.024;8.246;2023-10-08T11:04:20;14.48;;;4.35;;
22603;SDS011;11469;49.024;8.246;2023-10-08T11:06:54;16.30;;;5.07;;
22603;SDS011;11469;49.024;8.246;2023-10-08T11:09:23;15.55;;;4.85;;
22603;SDS011;11469;49.024;8.246;2023-10-08T11:12:10;11.60;;;4.30;;
22603;SDS011;11469;49.024;8.246;2023-10-08T11:14:41;15.73;;;4.93;;
22603;SDS011;11469;49.024;8.246;2023-10-08T11:17:14;14.77;;;4.75;;
22603;SDS011;11469;49.024;8.246;2023-10-08T11:19:42;16.15;;;4.93;;
22603;SDS011;11469;49.024;8.246;2023-10-08T11:22:11;14.82;;;3.88;;
22603;SDS011;11469;49.024;8.246;2023-10-08T11:24:41;12.63;;;4.78;;
22603;SDS011;11469;49.024;8.246;2023-10-08T11:27:09;14.18;;;4.50;;
22603;SDS011;11469;49.024;8.246;2023-10-08T11:29:42;13.43;;;4.88;;
22603;SDS011;11469;49.024;8.246;2023-10-08T11:32:09;9.77;;;4.72;;
22603;SDS011;11469;49.024;8.246;2023-10-08T11:34:38;12.13;;;4.30;;
22603;SDS011;11469;49.024;8.246;2023-10-08T11:37:04;21.15;;;4.88;;
22603;SDS011;11469;49.024;8.246;2023-10-08T11:39:44;12.82;;;4.38;;
22603;SDS011;11469;49.024;8.246;2023-10-08T11:42:13;13.43;;;5.35;;
22603;SDS011;11469;49.024;8.246;2023-10-08T11:44:59;14.70;;;5.32;;
22603;SDS011;11469;49.024;8.246;2023-10-08T11:47:25;14.60;;;4.50;;
22603;SDS011;11469;49.024;8.246;2023-10-08T11:49:56;16.40;;;4.63;;
22603;SDS011;11469;49.024;8.246;2023-10-08T11:52:35;23.77;;;5.38;;
22603;SDS011;11469;49.024;8.246;2023-10-08T11:55:06;20.98;;;4.97;;
22603;SDS011;11469;49.024;8.246;2023-10-08T11:57:32;14.60;;;5.95;;
22603;SDS011;11469;49.024;8.246;2023-10-08T12:00:01;14.02;;;5.32;;
22603;SDS011;11469;49.024;8.246;2023-10-08T12:02:44;19.25;;;5.03;;
22603;SDS011;11469;49.024;8.246;2023-10-08T12:05:10;14.80;;;4.63;;
22603;SDS011;11469;49.024;8.246;2023-10-08T12:07:44;12.32;;;4.82;;
22603;SDS011;11469;49.024;8.246;2023-10-08T12:10:13;15.73;;;5.18;;
22603;SDS011;11469;49.024;8.246;2023-10-08T12:12:47;13.82;;;5.28;;
22603;SDS011;11469;49.024;8.246;2023-10-08T12:15:17;20.70;;;5.47;;
22603;SDS011;11469;49.024;8.246;2023-10-08T12:17:50;16.80;;;5.47;;
22603;SDS011;11469;49.024;8.246;2023-10-08T12:20:38;15.65;;;5.05;;
22603;SDS011;11469;49.024;8.246;2023-10-08T12:23:04;12.52;;;5.45;;
22603;SDS011;11469;49.024;8.246;2023-10-08T12:25:31;9.98;;;4.57;;
22603;SDS011;11469;49.024;8.246;2023-10-08T12:27:58;18.33;;;4.55;;
22603;SDS011;11469;49.024;8.246;2023-10-08T12:30:27;20.90;;;4.75;;
22603;SDS011;11469;49.024;8.246;2023-10-08T12:32:56;16.13;;;4.30;;
22603;SDS011;11469;49.024;8.246;2023-10-08T12:35:25;16.20;;;4.35;;
22603;SDS011;11469;49.024;8.246;2023-10-08T12:37:51;12.18;;;5.07;;
22603;SDS011;11469;49.024;8.246;2023-10-08T12:40:16;17.02;;;5.28;;
22603;SDS011;11469;49.024;8.246;2023-10-08T12:42:48;19.15;;;5.55;;
22603;SDS011;11469;49.024;8.246;2023-10-08T12:45:17;21.08;;;4.97;;
22603;SDS011;11469;49.024;8.246;2023-10-08T12:47:52;18.85;;;5.00;;
22603;SDS011;11469;49.024;8.246;2023-10-08T12:50:18;14.90;;;5.25;;
22603;SDS011;11469;49.024;8.246;2023-10-08T12:52:57;14.60;;;5.03;;
22603;SDS011;11469;49.024;8.246;2023-10-08T12:55:25;22.20;;;5.50;;
22603;SDS011;11469;49.024;8.246;2023-10-08T12:57:52;17.95;;;5.55;;
22603;SDS011;11469;49.024;8.246;2023-10-08T13:00:23;13.27;;;4.97;;
22603;SDS011;11469;49.024;8.246;2023-10-08T13:02:51;20.13;;;4.68;;
22603;SDS011;11469;49.024;8.246;2023-10-08T13:05:21;17.90;;;4.78;;
22603;SDS011;11469;49.024;8.246;2023-10-08T13:07:54;13.70;;;4.72;;
22603;SDS011;11469;49.024;8.246;2023-10-08T13:10:21;20.88;;;5.90;;
22603;SDS011;11469;49.024;8.246;2023-10-08T13:12:47;13.90;;;5.00;;
22603;SDS011;11469;49.024;8.246;2023-10-08T13:15:13;16.38;;;4.45;;
22603;SDS011;11469;49.024;8.246;2023-10-08T13:17:39;13.10;;;5.15;;
22603;SDS011;11469;49.024;8.246;2023-10-08T13:20:16;17.33;;;5.65;;
22603;SDS011;11469;49.024;8.246;2023-10-08T13:22:42;13.27;;;4.72;;
22603;SDS011;11469;49.024;8.246;2023-10-08T13:25:08;13.68;;;5.13;;
22603;SDS011;11469;49.024;8.246;2023-10-08T13:27:34;12.57;;;4.47;;
22603;SDS011;11469;49.024;8.246;2023-10-08T13:30:05;20.10;;;4.93;;
22603;SDS011;11469;49.024;8.246;2023-10-08T13:32:33;11.23;;;4.28;;
22603;SDS011;11469;49.024;8.246;2023-10-08T13:35:02;15.50;;;4.97;;
22603;SDS011;11469;49.024;8.246;2023-10-08T13:37:29;17.77;;;5.10;;
22603;SDS011;11469;49.024;8.246;2023-10-08T13:39:56;17.52;;;4.60;;
22603;SDS011;11469;49.024;8.246;2023-10-08T13:42:22;18.25;;;4.57;;
22603;SDS011;11469;49.024;8.246;2023-10-08T13:44:47;15.38;;;5.05;;
22603;SDS011;11469;49.024;8.246;2023-10-08T13:47:13;16.60;;;5.45;;
22603;SDS011;11469;49.024;8.246;2023-10-08T13:49:40;16.70;;;5.32;;
22603;SDS011;11469;49.024;8.246;2023-10-08T13:52:08;18.52;;;4.70;;
22603;SDS011;11469;49.024;8.246;2023-10-08T13:54:34;9.10;;;4.97;;
22603;SDS011;11469;49.024;8.246;2023-10-08T13:57:04;13.77;;;4.70;;
22603;SDS011;11469;49.024;8.246;2023-10-08T13:59:33;14.57;;;4.78;;
22603;SDS011;11469;49.024;8.246;2023-10-08T14:01:59;11.25;;;4.30;;
22603;SDS011;11469;49.024;8.246;2023-10-08T14:04:26;19.35;;;4.85;;
22603;SDS011;11469;49.024;8.246;2023-10-08T14:06:55;12.27;;;4.78;;
22603;SDS011;11469;49.024;8.246;2023-10-08T14:09:23;12.65;;;4.85;;
22603;SDS011;11469;49.024;8.246;2023-10-08T14:12:01;11.43;;;5.13;;
22603;SDS011;11469;49.024;8.246;2023-10-08T14:14:27;14.68;;;5.07;;
22603;SDS011;11469;49.024;8.246;2023-10-08T14:16:58;13.95;;;4.97;;
22603;SDS011;11469;49.024;8.246;2023-10-08T14:19:28;11.77;;;5.07;;
22603;SDS011;11469;49.024;8.246;2023-10-08T14:22:01;10.60;;;4.63;;
22603;SDS011;11469;49.024;8.246;2023-10-08T14:24:29;9.75;;;4.28;;
22603;SDS011;11469;49.024;8.246;2023-10-08T14:27:00;10.73;;;4.70;;
22603;SDS011;11469;49.024;8.246;2023-10-08T14:29:31;17.42;;;4.72;;
22603;SDS011;11469;49.024;8.246;2023-10-08T14:31:59;18.00;;;5.72;;
22603;SDS011;11469;49.024;8.246;2023-10-08T14:34:24;8.80;;;4.35;;
22603;SDS011;11469;49.024;8.246;2023-10-08T14:37:08;10.73;;;4.90;;
22603;SDS011;11469;49.024;8.246;2023-10-08T14:39:52;18.65;;;4.70;;
22603;SDS011;11469;49.024;8.246;2023-10-08T14:42:37;11.17;;;5.03;;
22603;SDS011;11469;49.024;8.246;2023-10-08T14:45:23;11.57;;;4.53;;
22603;SDS011;11469;49.024;8.246;2023-10-08T14:47:51;18.65;;;4.72;;
22603;SDS011;11469;49.024;8.246;2023-10-08T14:50:21;9.20;;;4.68;;
22603;SDS011;11469;49.024;8.246;2023-10-08T14:52:47;16.05;;;4.85;;
22603;SDS011;11469;49.024;8.246;2023-10-08T14:55:13;13.18;;;5.05;;
22603;SDS011;11469;49.024;8.246;2023-10-08T14:57:38;11.07;;;4.47;;
22603;SDS011;11469;49.024;8.246;2023-10-08T15:00:06;16.02;;;5.22;;
22603;SDS011;11469;49.024;8.246;2023-10-08T15:02:32;15.95;;;4.90;;